Main page
METAR-TAF:

METAR-TAF

Airports :

Florence Airport

Florence, Italy

latitude: 43-48N, longitude: 011-12E, elevation: 40 m

Current weather observation

The report was made 33 minutes ago, at 14:50 UTC
Wind 12 kt from the North, varying between Northwest and North/Northeast
Temperature 18°C
Humidity 42%
Pressure 1018 hPa
Visibility 10 km or more
Few clouds at a height of 5000 ft

METAR: LIRQ 221450Z 36012KT 310V030 9999 FEW050 18/05 Q1018

Time: 17:23 (15:23 UTC)

Forecast

The report was made 4 hours and 23 minutes ago, at 11:00 UTC
Forecast valid from 22 at 12 UTC to 23 at 12 UTC
Wind 15 kt from the Northeast with gusts up to 25 kt
Visibility 10 km or more
Scattered clouds at a height of 5000 ft

TAF: LIRQ 221100Z 2212/2312 04015G25KT 9999 SCT050

Weather observations and forecasts of more than 4000 airports (METAR and TAF reports).

The available stations are represented by yellow and red dots on the map.

Hover mouse over dot to see the name of the station.

Then click to see weather observations and forecasts.

To change the map : click on the green buttons with a black cross to zoom in, on the green button with a dash to zoom out, or on the green arrows for adjacent maps.


METAR-TAF: